Terminal Aerodrome Forecast
Issued by NWS Mt. Holly, NJ

Home | Current Version | Previous Version | Text Only | Print | Product List | Glossary On
Versions: 1 2 3 4 5 6 7 8 9 10 11 12 13 14 15 16 17
000
FTUS41 KPHI 100500
TAFILG
TAF
KILG 100537Z 1006/1106 VRB04KT P6SM SCT035 BKN100
      TEMPO 1008/1011 BKN035 OVC100
     FM101100 05006KT P6SM SCT035 BKN100
     FM101600 12006KT P6SM SCT045
     FM102100 16008KT P6SM SCT045
     FM110200 VRB04KT P6SM BKN100=

USA.gov is the U.S. government's official web portal to all federal, state and local government web resources and services.